createdAt,value
2023-01-19T00:03:15.956Z,97156.06
2023-01-19T00:08:20.214Z,97152.59
2023-01-19T00:13:22.896Z,97156.47
2023-01-19T00:18:25.871Z,97164.22
2023-01-19T00:23:30.099Z,97163.09
2023-01-19T00:28:33.008Z,97162.69
2023-01-19T00:33:35.864Z,97177.75
2023-01-19T00:38:40.034Z,97190.78
2023-01-19T00:43:42.866Z,97190.56
2023-01-19T00:48:45.665Z,97198.47
2023-01-19T00:53:49.716Z,97188.78
2023-01-19T00:58:52.538Z,97198.97
2023-01-19T01:03:57.063Z,97195.03
2023-01-19T01:09:11.740Z,97201.22
2023-01-19T01:14:14.821Z,97196.16
2023-01-19T01:19:17.939Z,97192.13
2023-01-19T01:24:22.421Z,97196.47
2023-01-19T01:29:25.333Z,97185.44
2023-01-19T01:34:28.460Z,97201.31
2023-01-19T01:39:32.987Z,97202.72
2023-01-19T01:44:50.760Z,97212.72
2023-01-19T01:50:01.289Z,97211.41
2023-01-19T01:55:07.978Z,97214.75
2023-01-19T02:00:12.500Z,97215.25
2023-01-19T02:05:19.389Z,97218.50
2023-01-19T02:10:40.899Z,97206.25
2023-01-19T02:15:43.725Z,97205.53
2023-01-19T02:20:54.305Z,97209.06
2023-01-19T02:25:59.466Z,97204.97
2023-01-19T02:31:02.300Z,97202.53
2023-01-19T02:36:08.071Z,97207.09
2023-01-19T02:41:16.199Z,97200.09
2023-01-19T02:46:18.931Z,97201.22
2023-01-19T02:51:25.130Z,97209.16
2023-01-19T02:56:43.408Z,97214.28
2023-01-19T03:02:16.529Z,97206.44
2023-01-19T03:07:31.550Z,97201.97
2023-01-19T03:12:41.842Z,97202.44
2023-01-19T03:17:46.240Z,97200.19
2023-01-19T03:22:52.592Z,97192.63
2023-01-19T03:27:58.772Z,97194.03
2023-01-19T03:33:07.260Z,97188.81
2023-01-19T03:38:16.645Z,97189.75
2023-01-19T03:43:23.192Z,97196.28
2023-01-19T03:48:26.481Z,97199.44
2023-01-19T03:53:29.306Z,97195.16
2023-01-19T03:58:33.502Z,97197.22
2023-01-19T04:03:36.291Z,97200.19
2023-01-19T04:08:39.074Z,97203.28
2023-01-19T04:13:43.335Z,97193.72
2023-01-19T04:18:46.254Z,97204.84
2023-01-19T04:23:49.852Z,97208.97
2023-01-19T04:28:53.994Z,97203.72
2023-01-19T04:33:57.183Z,97209.72
2023-01-19T04:39:00.032Z,97209.72
2023-01-19T04:44:05.004Z,97204.47
2023-01-19T04:49:07.920Z,97222.59
2023-01-19T04:54:10.778Z,97217.38
2023-01-19T04:59:15.247Z,97211.38
2023-01-19T05:04:18.129Z,97209.91
2023-01-19T05:09:21.207Z,97214.38
2023-01-19T05:14:25.457Z,97204.19
2023-01-19T05:19:28.151Z,97219.91
2023-01-19T05:24:30.935Z,97229.34
2023-01-19T05:29:35.397Z,97235.69
2023-01-19T05:34:38.112Z,97228.88
2023-01-19T05:39:40.862Z,97236.34
2023-01-19T05:44:44.918Z,97237.75
2023-01-19T05:49:47.636Z,97240.06
2023-01-19T05:54:51.344Z,97228.56
2023-01-19T05:59:55.475Z,97232.69
2023-01-19T06:04:58.375Z,97231.47
2023-01-19T06:10:01.186Z,97234.63
2023-01-19T06:15:06.118Z,97223.84
2023-01-19T06:20:10.418Z,97231.53
2023-01-19T06:25:13.247Z,97226.94
2023-01-19T06:30:17.991Z,97235.25
2023-01-19T06:35:20.863Z,97238.94
2023-01-19T06:40:23.591Z,97244.00
2023-01-19T06:45:27.747Z,97232.78
2023-01-19T06:50:30.765Z,97237.19
2023-01-19T06:55:35.654Z,97249.44
2023-01-19T07:00:40.327Z,97247.53
2023-01-19T07:05:43.124Z,97256.34
2023-01-19T07:11:26.141Z,97260.66
2023-01-19T07:16:12.458Z,97277.22
2023-01-19T07:21:15.486Z,97277.75
2023-01-19T07:26:19.816Z,97285.88
2023-01-19T07:31:24.449Z,97288.44
2023-01-19T07:36:27.260Z,97283.66
2023-01-19T07:41:31.428Z,97284.94
2023-01-19T07:46:35.762Z,97282.97
2023-01-19T07:51:38.473Z,97287.06
2023-01-19T07:56:41.439Z,97295.47
2023-01-19T08:01:45.768Z,97301.47
2023-01-19T08:06:48.656Z,97303.22
2023-01-19T08:11:51.534Z,97314.66
2023-01-19T08:16:55.672Z,97322.44
2023-01-19T08:21:59.012Z,97322.50
2023-01-19T08:27:04.058Z,97330.78
2023-01-19T08:32:08.489Z,97329.75
2023-01-19T08:37:11.513Z,97335.56
2023-01-19T08:42:14.288Z,97338.38
2023-01-19T08:47:18.430Z,97346.38
2023-01-19T08:52:21.269Z,97334.25
2023-01-19T08:57:24.106Z,97341.78
2023-01-19T09:02:28.349Z,97346.13
2023-01-19T09:07:33.848Z,97347.47
2023-01-19T09:12:38.031Z,97356.28
2023-01-19T09:17:42.682Z,97357.56
2023-01-19T09:22:47.491Z,97360.84
2023-01-19T09:27:50.645Z,97358.50
2023-01-19T09:32:54.780Z,97363.47
2023-01-19T09:37:57.553Z,97365.56
2023-01-19T09:43:13.322Z,97371.03
2023-01-19T09:48:30.023Z,97376.28
2023-01-19T09:53:50.479Z,97383.63
2023-01-19T09:58:53.979Z,97392.00
2023-01-19T10:04:15.953Z,97391.88
2023-01-19T10:09:26.312Z,97395.03
2023-01-19T10:14:37.604Z,97389.91
2023-01-19T10:19:48.549Z,97390.97
2023-01-19T10:24:55.786Z,97400.00
2023-01-19T10:29:59.504Z,97392.44
2023-01-19T10:35:22.484Z,97388.34
2023-01-19T10:40:35.458Z,97388.69
2023-01-19T10:45:39.061Z,97389.31
2023-01-19T10:50:43.738Z,97379.44
2023-01-19T10:55:47.397Z,97390.56
2023-01-19T11:00:50.286Z,97387.53
2023-01-19T11:05:54.580Z,97400.13
2023-01-19T11:11:02.370Z,97399.69
2023-01-19T11:16:08.129Z,97395.09
2023-01-19T11:21:15.540Z,97389.84
2023-01-19T11:26:27.363Z,97392.06
2023-01-19T11:31:35.662Z,97384.72
2023-01-19T11:36:40.115Z,97389.09
2023-01-19T11:41:42.966Z,97389.00
2023-01-19T11:46:50.058Z,97385.63
2023-01-19T11:52:02.854Z,97389.41
2023-01-19T11:57:13.645Z,97395.84
2023-01-19T12:02:28.385Z,97389.94
2023-01-19T12:07:36.604Z,97390.06
2023-01-19T12:12:42.468Z,97393.53
2023-01-19T12:17:50.901Z,97393.75
2023-01-19T12:23:04.551Z,97393.56
2023-01-19T12:28:14.165Z,97388.03
2023-01-19T12:33:34.361Z,97396.66
2023-01-19T12:38:48.829Z,97392.56
2023-01-19T12:44:20.380Z,97392.13
2023-01-19T12:49:30.645Z,97401.09
2023-01-19T12:54:35.069Z,97394.59
2023-01-19T12:59:40.625Z,97392.69
2023-01-19T13:05:17.119Z,97385.63
2023-01-19T13:10:56.845Z,97392.84
2023-01-19T13:16:22.362Z,97388.16
2023-01-19T13:21:29.806Z,97395.22
2023-01-19T13:26:36.978Z,97392.06
2023-01-19T13:31:41.678Z,97389.69
2023-01-19T13:36:47.877Z,97397.56
2023-01-19T13:41:55.492Z,97398.72
2023-01-19T13:46:59.811Z,97405.22
2023-01-19T13:52:17.522Z,97403.03
2023-01-19T13:57:27.039Z,97415.56
2023-01-19T14:02:29.860Z,97417.84
2023-01-19T14:07:32.933Z,97410.00
2023-01-19T14:12:45.578Z,97416.22
2023-01-19T14:18:09.869Z,97420.31
2023-01-19T14:23:45.438Z,97419.59
2023-01-19T14:28:49.569Z,97423.50
2023-01-19T14:33:54.002Z,97434.03
2023-01-19T14:38:59.471Z,97424.56
2023-01-19T14:44:08.484Z,97429.41
2023-01-19T14:49:20.105Z,97430.38
2023-01-19T14:54:30.766Z,97445.19
2023-01-19T14:59:34.902Z,97445.00
2023-01-19T15:04:37.611Z,97450.88
2023-01-19T15:09:40.503Z,97450.03
2023-01-19T15:14:45.235Z,97459.72
2023-01-19T15:19:47.967Z,97453.84
2023-01-19T15:24:50.887Z,97460.28
2023-01-19T15:29:55.274Z,97465.09
2023-01-19T15:34:58.038Z,97479.13
2023-01-19T15:40:00.835Z,97475.69
2023-01-19T15:45:33.691Z,97481.47
2023-01-19T15:50:38.689Z,97479.69
2023-01-19T15:55:41.479Z,97482.75
2023-01-19T16:00:45.621Z,97487.50
2023-01-19T16:05:48.775Z,97485.31
2023-01-19T16:10:51.619Z,97489.41
2023-01-19T16:15:55.654Z,97498.66
2023-01-19T16:20:58.611Z,97496.25
2023-01-19T16:26:04.804Z,97501.19
2023-01-19T16:31:08.976Z,97511.06
2023-01-19T16:36:24.541Z,97524.34
2023-01-19T16:41:34.215Z,97519.47
2023-01-19T16:46:41.256Z,97516.22
2023-01-19T16:51:44.190Z,97523.59
2023-01-19T16:56:47.251Z,97527.44
2023-01-19T17:01:52.190Z,97534.16
2023-01-19T17:06:55.385Z,97534.66
2023-01-19T17:11:59.154Z,97541.16
2023-01-19T17:17:04.252Z,97543.25
2023-01-19T17:22:07.438Z,97540.28
2023-01-19T17:27:10.430Z,97541.53
2023-01-19T17:32:14.609Z,97547.94
2023-01-19T17:37:17.366Z,97553.56
2023-01-19T17:42:20.134Z,97551.13
2023-01-19T17:47:25.944Z,97562.97
2023-01-19T17:52:28.809Z,97571.97
2023-01-19T17:57:31.668Z,97580.06
2023-01-19T18:02:35.876Z,97574.16
2023-01-19T18:07:38.747Z,97583.28
2023-01-19T18:12:42.691Z,97582.88
2023-01-19T18:17:47.594Z,97595.56
2023-01-19T18:22:50.315Z,97593.88
2023-01-19T18:27:53.259Z,97597.72
2023-01-19T18:32:57.429Z,97594.47
2023-01-19T18:38:00.378Z,97589.50
2023-01-19T18:43:03.339Z,97588.75
2023-01-19T18:48:07.723Z,97586.31
2023-01-19T18:53:10.558Z,97592.88
2023-01-19T18:58:13.617Z,97587.91
2023-01-19T19:03:18.372Z,97596.91
2023-01-19T19:08:21.285Z,97598.66
2023-01-19T19:13:24.312Z,97600.34
2023-01-19T19:18:28.619Z,97603.06
2023-01-19T19:23:31.432Z,97610.09
2023-01-19T19:28:36.811Z,97610.47
2023-01-19T19:33:41.655Z,97622.91
2023-01-19T19:38:47.134Z,97620.47
2023-01-19T19:43:50.275Z,97619.16
2023-01-19T19:48:55.521Z,97619.53
2023-01-19T19:54:00.031Z,97624.19
2023-01-19T19:59:02.925Z,97620.59
2023-01-19T20:04:09.220Z,97628.16
2023-01-19T20:09:13.988Z,97623.63
2023-01-19T20:14:17.199Z,97630.41
2023-01-19T20:19:21.346Z,97637.03
2023-01-19T20:24:24.130Z,97640.06
2023-01-19T20:29:26.981Z,97648.00
2023-01-19T20:34:33.874Z,97648.81
2023-01-19T20:39:37.126Z,97647.38
2023-01-19T20:44:40.660Z,97660.88
2023-01-19T20:49:44.896Z,97660.28
2023-01-19T20:54:47.663Z,97671.69
2023-01-19T20:59:50.453Z,97675.81
2023-01-19T21:04:54.844Z,97676.31
2023-01-19T21:09:57.596Z,97677.41
2023-01-19T21:15:00.409Z,97687.34
2023-01-19T21:20:05.321Z,97696.69
2023-01-19T21:25:08.571Z,97695.63
2023-01-19T21:30:12.214Z,97696.34
2023-01-19T21:35:16.925Z,97723.63
2023-01-19T21:40:20.183Z,97728.25
2023-01-19T21:45:23.734Z,97726.88
2023-01-19T21:50:27.953Z,97722.81
2023-01-19T21:55:31.324Z,97728.03
2023-01-19T22:00:34.485Z,97739.72
2023-01-19T22:05:38.692Z,97748.78
2023-01-19T22:10:41.549Z,97747.31
2023-01-19T22:15:44.343Z,97741.69
2023-01-19T22:20:48.420Z,97745.31
2023-01-19T22:25:51.232Z,97752.28
2023-01-19T22:30:54.108Z,97756.13
2023-01-19T22:36:10.691Z,97762.56
2023-01-19T22:41:15.149Z,97768.38
2023-01-19T22:46:19.749Z,97767.72
2023-01-19T22:51:25.591Z,97771.63
2023-01-19T22:56:30.062Z,97768.41
2023-01-19T23:01:34.822Z,97776.44
2023-01-19T23:06:39.358Z,97778.28
2023-01-19T23:11:43.809Z,97773.19
2023-01-19T23:16:47.739Z,97774.75
2023-01-19T23:21:53.370Z,97779.81
2023-01-19T23:26:56.087Z,97789.47
2023-01-19T23:31:59.060Z,97789.66
2023-01-19T23:37:03.144Z,97792.38
2023-01-19T23:42:08.167Z,97791.66
2023-01-19T23:47:10.926Z,97790.59
2023-01-19T23:52:14.979Z,97793.19
2023-01-19T23:57:17.742Z,97798.88
